sensor_id;sensor_type;location;lat;lon;timestamp;pressure;altitude;pressure_sealevel;temperature;humidity
11971;BME280;6045;42.682;23.294;2023-04-26T00:02:10;93718.44;;;11.78;80.88
11971;BME280;6045;42.682;23.294;2023-04-26T00:04:37;93713.06;;;11.78;81.85
11971;BME280;6045;42.682;23.294;2023-04-26T00:07:05;93707.63;;;11.63;80.47
11971;BME280;6045;42.682;23.294;2023-04-26T00:09:32;93702.50;;;11.61;80.80
11971;BME280;6045;42.682;23.294;2023-04-26T00:11:59;93697.97;;;11.62;80.62
11971;BME280;6045;42.682;23.294;2023-04-26T00:14:26;93700.94;;;11.65;81.71
11971;BME280;6045;42.682;23.294;2023-04-26T00:16:53;93689.16;;;11.66;81.97
11971;BME280;6045;42.682;23.294;2023-04-26T00:19:20;93688.13;;;11.68;81.66
11971;BME280;6045;42.682;23.294;2023-04-26T00:21:48;93682.50;;;11.69;81.05
11971;BME280;6045;42.682;23.294;2023-04-26T00:24:16;93689.44;;;11.65;80.31
11971;BME280;6045;42.682;23.294;2023-04-26T00:26:43;93690.97;;;11.56;81.38
11971;BME280;6045;42.682;23.294;2023-04-26T00:29:10;93695.94;;;11.37;79.31
11971;BME280;6045;42.682;23.294;2023-04-26T00:31:37;93691.09;;;11.34;80.10
11971;BME280;6045;42.682;23.294;2023-04-26T00:34:03;93680.16;;;11.41;81.63
11971;BME280;6045;42.682;23.294;2023-04-26T00:36:30;93681.25;;;11.45;82.11
11971;BME280;6045;42.682;23.294;2023-04-26T00:38:57;93686.41;;;11.51;82.73
11971;BME280;6045;42.682;23.294;2023-04-26T00:41:25;93674.84;;;11.46;83.32
11971;BME280;6045;42.682;23.294;2023-04-26T00:43:52;93681.50;;;11.38;83.87
11971;BME280;6045;42.682;23.294;2023-04-26T00:46:19;93678.59;;;11.45;84.07
11971;BME280;6045;42.682;23.294;2023-04-26T00:48:46;93679.94;;;11.47;83.79
11971;BME280;6045;42.682;23.294;2023-04-26T00:51:13;93682.09;;;11.50;83.82
11971;BME280;6045;42.682;23.294;2023-04-26T00:53:41;93683.72;;;11.51;83.78
11971;BME280;6045;42.682;23.294;2023-04-26T00:56:08;93682.88;;;11.46;83.68
11971;BME280;6045;42.682;23.294;2023-04-26T00:58:37;93680.47;;;11.44;84.53
11971;BME280;6045;42.682;23.294;2023-04-26T01:01:04;93677.53;;;11.46;84.69
11971;BME280;6045;42.682;23.294;2023-04-26T01:03:32;93681.78;;;11.42;84.87
11971;BME280;6045;42.682;23.294;2023-04-26T01:05:58;93692.50;;;11.42;84.75
11971;BME280;6045;42.682;23.294;2023-04-26T01:08:25;93692.69;;;11.35;85.15
11971;BME280;6045;42.682;23.294;2023-04-26T01:10:52;93697.69;;;11.22;85.88
11971;BME280;6045;42.682;23.294;2023-04-26T01:13:19;93699.78;;;11.15;86.57
11971;BME280;6045;42.682;23.294;2023-04-26T01:15:47;93691.16;;;11.08;87.37
11971;BME280;6045;42.682;23.294;2023-04-26T01:18:14;93690.59;;;11.06;87.53
11971;BME280;6045;42.682;23.294;2023-04-26T01:20:41;93682.91;;;11.09;87.68
11971;BME280;6045;42.682;23.294;2023-04-26T01:23:09;93674.38;;;11.17;87.32
11971;BME280;6045;42.682;23.294;2023-04-26T01:25:37;93668.22;;;11.17;86.51
11971;BME280;6045;42.682;23.294;2023-04-26T01:28:04;93666.72;;;11.26;85.71
11971;BME280;6045;42.682;23.294;2023-04-26T01:30:30;93670.22;;;11.31;85.32
11971;BME280;6045;42.682;23.294;2023-04-26T01:32:57;93672.91;;;11.36;85.22
11971;BME280;6045;42.682;23.294;2023-04-26T01:35:24;93683.06;;;11.34;84.90
11971;BME280;6045;42.682;23.294;2023-04-26T01:37:51;93682.25;;;11.34;85.03
11971;BME280;6045;42.682;23.294;2023-04-26T01:40:19;93678.28;;;11.36;84.74
11971;BME280;6045;42.682;23.294;2023-04-26T01:42:46;93676.94;;;11.39;84.47
11971;BME280;6045;42.682;23.294;2023-04-26T01:45:13;93686.22;;;11.26;84.96
11971;BME280;6045;42.682;23.294;2023-04-26T01:47:39;93689.66;;;11.22;85.69
11971;BME280;6045;42.682;23.294;2023-04-26T01:50:08;93691.06;;;10.97;85.64
11971;BME280;6045;42.682;23.294;2023-04-26T01:52:35;93683.97;;;10.81;86.77
11971;BME280;6045;42.682;23.294;2023-04-26T01:55:02;93679.44;;;10.82;87.94
11971;BME280;6045;42.682;23.294;2023-04-26T01:57:30;93673.66;;;10.90;87.95
11971;BME280;6045;42.682;23.294;2023-04-26T01:59:57;93672.84;;;10.89;88.01
11971;BME280;6045;42.682;23.294;2023-04-26T02:02:23;93672.03;;;10.89;87.05
11971;BME280;6045;42.682;23.294;2023-04-26T02:04:50;93662.22;;;10.99;87.02
11971;BME280;6045;42.682;23.294;2023-04-26T02:07:17;93658.47;;;11.00;86.43
11971;BME280;6045;42.682;23.294;2023-04-26T02:09:44;93664.91;;;11.05;85.96
11971;BME280;6045;42.682;23.294;2023-04-26T02:12:11;93669.81;;;11.13;85.44
11971;BME280;6045;42.682;23.294;2023-04-26T02:14:39;93667.44;;;11.16;84.65
11971;BME280;6045;42.682;23.294;2023-04-26T02:17:06;93663.44;;;11.19;84.54
11971;BME280;6045;42.682;23.294;2023-04-26T02:19:33;93654.91;;;11.22;84.29
11971;BME280;6045;42.682;23.294;2023-04-26T02:22:00;93654.13;;;11.26;83.97
11971;BME280;6045;42.682;23.294;2023-04-26T02:24:26;93656.00;;;11.26;83.43
11971;BME280;6045;42.682;23.294;2023-04-26T02:26:54;93658.94;;;11.24;83.06
11971;BME280;6045;42.682;23.294;2023-04-26T02:29:24;93659.16;;;11.18;82.79
11971;BME280;6045;42.682;23.294;2023-04-26T02:31:52;93658.09;;;11.19;82.72
11971;BME280;6045;42.682;23.294;2023-04-26T02:34:19;93658.09;;;11.19;82.59
11971;BME280;6045;42.682;23.294;2023-04-26T02:36:46;93668.22;;;11.17;82.65
11971;BME280;6045;42.682;23.294;2023-04-26T02:39:13;93671.97;;;11.16;82.50
11971;BME280;6045;42.682;23.294;2023-04-26T02:41:41;93669.31;;;11.16;82.87
11971;BME280;6045;42.682;23.294;2023-04-26T02:44:07;93669.31;;;11.16;82.94
11971;BME280;6045;42.682;23.294;2023-04-26T02:46:34;93665.81;;;11.15;83.19
11971;BME280;6045;42.682;23.294;2023-04-26T02:49:02;93654.63;;;11.18;83.16
11971;BME280;6045;42.682;23.294;2023-04-26T02:51:29;93660.50;;;11.20;83.95
11971;BME280;6045;42.682;23.294;2023-04-26T02:53:57;93648.00;;;11.26;84.33
11971;BME280;6045;42.682;23.294;2023-04-26T02:56:23;93650.59;;;11.16;84.97
11971;BME280;6045;42.682;23.294;2023-04-26T02:58:50;93639.94;;;11.21;84.96
11971;BME280;6045;42.682;23.294;2023-04-26T03:01:17;93649.31;;;11.23;84.73
11971;BME280;6045;42.682;23.294;2023-04-26T03:03:43;93648.72;;;11.16;85.60
11971;BME280;6045;42.682;23.294;2023-04-26T03:06:11;93650.72;;;10.99;85.42
11971;BME280;6045;42.682;23.294;2023-04-26T03:08:39;93642.19;;;11.02;85.56
11971;BME280;6045;42.682;23.294;2023-04-26T03:11:05;93646.78;;;11.07;85.34
11971;BME280;6045;42.682;23.294;2023-04-26T03:13:32;93651.00;;;11.02;85.96
11971;BME280;6045;42.682;23.294;2023-04-26T03:15:59;93650.50;;;11.06;86.14
11971;BME280;6045;42.682;23.294;2023-04-26T03:18:26;93648.69;;;11.11;85.88
11971;BME280;6045;42.682;23.294;2023-04-26T03:20:53;93643.53;;;10.99;86.16
11971;BME280;6045;42.682;23.294;2023-04-26T03:23:21;93645.16;;;11.06;86.26
11971;BME280;6045;42.682;23.294;2023-04-26T03:25:49;93645.19;;;11.11;85.74
11971;BME280;6045;42.682;23.294;2023-04-26T03:28:16;93649.50;;;11.17;84.89
11971;BME280;6045;42.682;23.294;2023-04-26T03:30:43;93643.09;;;11.18;83.70
11971;BME280;6045;42.682;23.294;2023-04-26T03:33:10;93649.53;;;11.22;84.07
11971;BME280;6045;42.682;23.294;2023-04-26T03:35:37;93644.75;;;11.24;83.68
11971;BME280;6045;42.682;23.294;2023-04-26T03:38:04;93643.41;;;11.26;83.20
11971;BME280;6045;42.682;23.294;2023-04-26T03:40:32;93645.56;;;11.24;83.45
11971;BME280;6045;42.682;23.294;2023-04-26T03:42:59;93653.81;;;11.18;83.47
11971;BME280;6045;42.682;23.294;2023-04-26T03:45:26;93662.97;;;11.27;85.21
11971;BME280;6045;42.682;23.294;2023-04-26T03:47:52;93656.06;;;12.70;100.00
11971;BME280;6045;42.682;23.294;2023-04-26T03:50:19;93664.44;;;13.24;100.00
11971;BME280;6045;42.682;23.294;2023-04-26T03:52:46;93665.13;;;13.95;99.92
11971;BME280;6045;42.682;23.294;2023-04-26T03:55:13;93658.91;;;14.63;92.97
11971;BME280;6045;42.682;23.294;2023-04-26T03:57:41;93657.38;;;15.30;85.04
11971;BME280;6045;42.682;23.294;2023-04-26T04:00:09;93667.81;;;15.36;71.44
11971;BME280;6045;42.682;23.294;2023-04-26T04:02:38;93672.03;;;15.14;69.24
11971;BME280;6045;42.682;23.294;2023-04-26T04:05:05;93676.00;;;14.87;69.33
11971;BME280;6045;42.682;23.294;2023-04-26T04:07:32;93674.59;;;14.51;70.18
11971;BME280;6045;42.682;23.294;2023-04-26T04:09:59;93677.38;;;14.26;75.07
11971;BME280;6045;42.682;23.294;2023-04-26T04:12:26;93681.81;;;13.82;74.32
11971;BME280;6045;42.682;23.294;2023-04-26T04:14:54;93689.94;;;13.36;73.99
11971;BME280;6045;42.682;23.294;2023-04-26T04:17:21;93680.00;;;13.17;78.06
11971;BME280;6045;42.682;23.294;2023-04-26T04:19:47;93683.22;;;13.24;79.01
11971;BME280;6045;42.682;23.294;2023-04-26T04:22:14;93677.34;;;13.07;77.84
11971;BME280;6045;42.682;23.294;2023-04-26T04:24:41;93684.81;;;13.10;78.70
11971;BME280;6045;42.682;23.294;2023-04-26T04:27:08;93692.34;;;13.18;78.64
11971;BME280;6045;42.682;23.294;2023-04-26T04:29:35;93689.41;;;13.29;78.39
11971;BME280;6045;42.682;23.294;2023-04-26T04:32:04;93694.25;;;13.07;76.33
11971;BME280;6045;42.682;23.294;2023-04-26T04:34:33;93692.34;;;13.13;79.99
11971;BME280;6045;42.682;23.294;2023-04-26T04:37:00;93690.22;;;13.30;82.54
11971;BME280;6045;42.682;23.294;2023-04-26T04:39:28;93694.22;;;13.17;76.90
11971;BME280;6045;42.682;23.294;2023-04-26T04:41:55;93699.84;;;13.06;76.89
11971;BME280;6045;42.682;23.294;2023-04-26T04:44:22;93696.06;;;12.91;77.68
11971;BME280;6045;42.682;23.294;2023-04-26T04:46:51;93687.25;;;13.06;79.25
11971;BME280;6045;42.682;23.294;2023-04-26T04:49:19;93701.41;;;12.91;78.32
11971;BME280;6045;42.682;23.294;2023-04-26T04:51:46;93698.47;;;12.88;78.99
11971;BME280;6045;42.682;23.294;2023-04-26T04:54:14;93699.59;;;13.27;82.12
11971;BME280;6045;42.682;23.294;2023-04-26T04:56:41;93694.50;;;13.41;77.99
11971;BME280;6045;42.682;23.294;2023-04-26T04:59:08;93700.66;;;13.31;75.12
11971;BME280;6045;42.682;23.294;2023-04-26T05:01:35;93693.94;;;13.24;77.58
11971;BME280;6045;42.682;23.294;2023-04-26T05:04:03;93694.75;;;13.19;76.69
11971;BME280;6045;42.682;23.294;2023-04-26T05:06:31;93698.53;;;13.18;75.74
11971;BME280;6045;42.682;23.294;2023-04-26T05:08:58;93695.03;;;13.18;77.36
11971;BME280;6045;42.682;23.294;2023-04-26T05:11:24;93704.44;;;13.30;79.86
11971;BME280;6045;42.682;23.294;2023-04-26T05:13:51;93699.59;;;13.47;78.13
11971;BME280;6045;42.682;23.294;2023-04-26T05:16:18;93706.00;;;13.61;76.42
11971;BME280;6045;42.682;23.294;2023-04-26T05:18:45;93695.53;;;13.75;76.27
11971;BME280;6045;42.682;23.294;2023-04-26T05:21:12;93700.91;;;13.80;75.28
11971;BME280;6045;42.682;23.294;2023-04-26T05:23:40;93697.66;;;13.78;74.67
11971;BME280;6045;42.682;23.294;2023-04-26T05:26:09;93701.16;;;13.73;74.86
11971;BME280;6045;42.682;23.294;2023-04-26T05:28:36;93712.19;;;13.77;75.51
11971;BME280;6045;42.682;23.294;2023-04-26T05:31:03;93707.56;;;14.03;75.56
11971;BME280;6045;42.682;23.294;2023-04-26T05:33:30;93719.34;;;14.17;75.40
11971;BME280;6045;42.682;23.294;2023-04-26T05:35:57;93713.88;;;14.42;74.05
11971;BME280;6045;42.682;23.294;2023-04-26T05:38:24;93707.78;;;14.80;75.62
11971;BME280;6045;42.682;23.294;2023-04-26T05:40:52;93705.38;;;15.18;72.67
11971;BME280;6045;42.682;23.294;2023-04-26T05:43:19;93708.97;;;15.47;71.78
11971;BME280;6045;42.682;23.294;2023-04-26T05:45:52;93711.25;;;15.63;70.42
11971;BME280;6045;42.682;23.294;2023-04-26T05:48:19;93718.97;;;15.75;69.11
11971;BME280;6045;42.682;23.294;2023-04-26T05:50:47;93720.47;;;15.86;68.21
11971;BME280;6045;42.682;23.294;2023-04-26T05:53:14;93717.91;;;15.71;67.65
11971;BME280;6045;42.682;23.294;2023-04-26T05:55:41;93724.34;;;15.75;68.84
11971;BME280;6045;42.682;23.294;2023-04-26T05:58:09;93721.34;;;15.77;67.31
11971;BME280;6045;42.682;23.294;2023-04-26T06:00:36;93725.34;;;15.84;68.81
11971;BME280;6045;42.682;23.294;2023-04-26T06:03:04;93714.41;;;15.99;69.74
11971;BME280;6045;42.682;23.294;2023-04-26T06:05:31;93721.88;;;16.07;67.73
11971;BME280;6045;42.682;23.294;2023-04-26T06:07:58;93721.63;;;16.27;65.86
11971;BME280;6045;42.682;23.294;2023-04-26T06:10:26;93730.28;;;16.29;66.02
11971;BME280;6045;42.682;23.294;2023-04-26T06:12:52;93715.53;;;16.46;65.72
11971;BME280;6045;42.682;23.294;2023-04-26T06:15:20;93717.09;;;16.52;65.64
11971;BME280;6045;42.682;23.294;2023-04-26T06:17:47;93719.63;;;17.04;65.03
11971;BME280;6045;42.682;23.294;2023-04-26T06:20:14;93724.81;;;17.38;63.31
11971;BME280;6045;42.682;23.294;2023-04-26T06:22:41;93725.25;;;17.96;62.66
11971;BME280;6045;42.682;23.294;2023-04-26T06:25:08;93726.13;;;18.37;61.92
11971;BME280;6045;42.682;23.294;2023-04-26T06:27:35;93723.47;;;18.05;58.33
11971;BME280;6045;42.682;23.294;2023-04-26T06:30:04;93727.53;;;17.56;57.29
11971;BME280;6045;42.682;23.294;2023-04-26T06:32:33;93733.81;;;17.33;59.70
11971;BME280;6045;42.682;23.294;2023-04-26T06:35:00;93727.94;;;17.07;57.14
11971;BME280;6045;42.682;23.294;2023-04-26T06:37:27;93722.78;;;17.11;60.71
11971;BME280;6045;42.682;23.294;2023-04-26T06:39:54;93734.50;;;16.83;57.69
11971;BME280;6045;42.682;23.294;2023-04-26T06:42:21;93736.66;;;16.62;59.45
11971;BME280;6045;42.682;23.294;2023-04-26T06:44:47;93729.38;;;16.63;58.86
11971;BME280;6045;42.682;23.294;2023-04-26T06:47:14;93731.94;;;16.91;60.59
11971;BME280;6045;42.682;23.294;2023-04-26T06:49:42;93736.72;;;17.18;58.08
11971;BME280;6045;42.682;23.294;2023-04-26T06:52:09;93733.38;;;17.63;57.06
11971;BME280;6045;42.682;23.294;2023-04-26T06:54:36;93738.09;;;18.04;56.78
11971;BME280;6045;42.682;23.294;2023-04-26T06:57:03;93736.72;;;18.33;54.32
11971;BME280;6045;42.682;23.294;2023-04-26T06:59:29;93734.53;;;18.35;52.79
11971;BME280;6045;42.682;23.294;2023-04-26T07:01:56;93738.59;;;17.73;54.63
11971;BME280;6045;42.682;23.294;2023-04-26T07:04:23;93737.44;;;17.42;54.79
11971;BME280;6045;42.682;23.294;2023-04-26T07:06:51;93739.78;;;17.30;56.45
11971;BME280;6045;42.682;23.294;2023-04-26T07:09:18;93745.84;;;17.78;57.08
11971;BME280;6045;42.682;23.294;2023-04-26T07:11:45;93742.72;;;18.17;54.29
11971;BME280;6045;42.682;23.294;2023-04-26T07:14:12;93739.38;;;18.66;54.12
11971;BME280;6045;42.682;23.294;2023-04-26T07:16:39;93743.38;;;18.68;52.08
11971;BME280;6045;42.682;23.294;2023-04-26T07:19:06;93736.66;;;18.52;51.19
11971;BME280;6045;42.682;23.294;2023-04-26T07:21:34;93747.41;;;18.57;54.19
11971;BME280;6045;42.682;23.294;2023-04-26T07:24:02;93745.06;;;18.37;51.16
11971;BME280;6045;42.682;23.294;2023-04-26T07:26:29;93737.13;;;18.27;51.32
11971;BME280;6045;42.682;23.294;2023-04-26T07:28:56;93740.22;;;17.37;51.51
11971;BME280;6045;42.682;23.294;2023-04-26T07:31:23;93745.66;;;16.76;50.58
11971;BME280;6045;42.682;23.294;2023-04-26T07:33:54;93745.41;;;16.49;53.41
11971;BME280;6045;42.682;23.294;2023-04-26T07:36:21;93745.63;;;16.58;54.73
11971;BME280;6045;42.682;23.294;2023-04-26T07:38:48;93744.94;;;16.89;56.36
11971;BME280;6045;42.682;23.294;2023-04-26T07:41:17;93750.19;;;16.81;53.45
11971;BME280;6045;42.682;23.294;2023-04-26T07:43:44;93757.97;;;16.35;54.56
11971;BME280;6045;42.682;23.294;2023-04-26T07:46:11;93760.63;;;16.11;54.71
11971;BME280;6045;42.682;23.294;2023-04-26T07:48:37;93766.28;;;16.15;55.89
11971;BME280;6045;42.682;23.294;2023-04-26T07:51:08;93764.59;;;16.48;55.61
11971;BME280;6045;42.682;23.294;2023-04-26T07:53:35;93769.63;;;16.30;53.06
11971;BME280;6045;42.682;23.294;2023-04-26T07:56:03;93778.69;;;15.87;52.71
11971;BME280;6045;42.682;23.294;2023-04-26T07:58:32;93770.91;;;15.47;52.85
11971;BME280;6045;42.682;23.294;2023-04-26T08:00:58;93779.41;;;15.15;54.64
11971;BME280;6045;42.682;23.294;2023-04-26T08:03:25;93774.69;;;15.46;55.97
11971;BME280;6045;42.682;23.294;2023-04-26T08:05:53;93771.72;;;15.81;55.51
11971;BME280;6045;42.682;23.294;2023-04-26T08:08:20;93773.06;;;15.79;53.66
11971;BME280;6045;42.682;23.294;2023-04-26T08:10:47;93765.56;;;15.76;54.57
11971;BME280;6045;42.682;23.294;2023-04-26T08:13:14;93770.47;;;15.97;54.99
11971;BME280;6045;42.682;23.294;2023-04-26T08:15:42;93769.88;;;16.34;54.69
11971;BME280;6045;42.682;23.294;2023-04-26T08:18:09;93760.19;;;16.99;51.55
11971;BME280;6045;42.682;23.294;2023-04-26T08:20:36;93774.56;;;16.94;50.75
11971;BME280;6045;42.682;23.294;2023-04-26T08:23:02;93774.38;;;16.67;52.25
11971;BME280;6045;42.682;23.294;2023-04-26T08:25:29;93763.66;;;17.23;51.86
11971;BME280;6045;42.682;23.294;2023-04-26T08:27:59;93764.22;;;17.39;51.70
11971;BME280;6045;42.682;23.294;2023-04-26T08:30:26;93767.38;;;17.08;50.28
11971;BME280;6045;42.682;23.294;2023-04-26T08:32:54;93777.50;;;16.56;51.78
11971;BME280;6045;42.682;23.294;2023-04-26T08:35:20;93768.59;;;16.26;50.64
11971;BME280;6045;42.682;23.294;2023-04-26T08:37:47;93764.59;;;16.48;54.01
11971;BME280;6045;42.682;23.294;2023-04-26T08:40:22;93768.97;;;16.91;51.26
11971;BME280;6045;42.682;23.294;2023-04-26T08:42:49;93768.28;;;16.80;51.61
11971;BME280;6045;42.682;23.294;2023-04-26T08:45:18;93763.84;;;16.89;52.46
11971;BME280;6045;42.682;23.294;2023-04-26T08:47:47;93762.84;;;17.04;51.49
11971;BME280;6045;42.682;23.294;2023-04-26T08:50:18;93768.31;;;17.18;52.22
11971;BME280;6045;42.682;23.294;2023-04-26T08:52:47;93770.56;;;16.92;49.48
11971;BME280;6045;42.682;23.294;2023-04-26T08:55:15;93773.84;;;16.65;49.92
11971;BME280;6045;42.682;23.294;2023-04-26T08:57:42;93771.84;;;16.52;52.00
11971;BME280;6045;42.682;23.294;2023-04-26T09:00:12;93765.88;;;16.79;51.33
11971;BME280;6045;42.682;23.294;2023-04-26T09:02:40;93765.03;;;17.02;51.35
11971;BME280;6045;42.682;23.294;2023-04-26T09:05:09;93775.91;;;17.34;50.43
11971;BME280;6045;42.682;23.294;2023-04-26T09:07:40;93772.78;;;17.27;49.42
11971;BME280;6045;42.682;23.294;2023-04-26T09:10:09;93767.53;;;17.36;50.79
11971;BME280;6045;42.682;23.294;2023-04-26T09:12:36;93777.13;;;17.65;51.38
11971;BME280;6045;42.682;23.294;2023-04-26T09:15:04;93774.16;;;17.81;51.27
11971;BME280;6045;42.682;23.294;2023-04-26T09:17:33;93775.53;;;17.97;48.88
11971;BME280;6045;42.682;23.294;2023-04-26T09:20:01;93774.88;;;17.86;48.14
11971;BME280;6045;42.682;23.294;2023-04-26T09:22:44;93776.13;;;17.94;49.10
11971;BME280;6045;42.682;23.294;2023-04-26T09:25:12;93774.91;;;18.00;48.58
11971;BME280;6045;42.682;23.294;2023-04-26T09:27:40;93780.97;;;18.10;47.46
11971;BME280;6045;42.682;23.294;2023-04-26T09:30:10;93776.28;;;17.84;48.32
11971;BME280;6045;42.682;23.294;2023-04-26T09:32:48;93778.47;;;17.82;48.94
11971;BME280;6045;42.682;23.294;2023-04-26T09:35:24;93779.75;;;18.03;46.76
11971;BME280;6045;42.682;23.294;2023-04-26T09:37:54;93776.00;;;18.31;48.61
11971;BME280;6045;42.682;23.294;2023-04-26T09:40:23;93776.69;;;18.55;48.49
11971;BME280;6045;42.682;23.294;2023-04-26T09:42:58;93772.84;;;18.56;47.27
11971;BME280;6045;42.682;23.294;2023-04-26T09:45:26;93773.00;;;18.32;46.47
11971;BME280;6045;42.682;23.294;2023-04-26T09:47:53;93762.97;;;18.33;46.25
11971;BME280;6045;42.682;23.294;2023-04-26T09:50:30;93759.63;;;18.68;46.26
11971;BME280;6045;42.682;23.294;2023-04-26T09:52:58;93767.47;;;18.83;46.12
11971;BME280;6045;42.682;23.294;2023-04-26T09:55:26;93753.63;;;18.71;43.24
11971;BME280;6045;42.682;23.294;2023-04-26T09:57:53;93762.53;;;18.12;44.93
11971;BME280;6045;42.682;23.294;2023-04-26T10:00:21;93762.66;;;18.53;45.81
11971;BME280;6045;42.682;23.294;2023-04-26T10:02:48;93764.16;;;18.86;43.74
11971;BME280;6045;42.682;23.294;2023-04-26T10:05:15;93754.16;;;19.36;43.30
11971;BME280;6045;42.682;23.294;2023-04-26T10:07:42;93750.94;;;19.70;42.99
11971;BME280;6045;42.682;23.294;2023-04-26T10:10:12;93755.03;;;19.32;41.80
11971;BME280;6045;42.682;23.294;2023-04-26T10:12:40;93759.63;;;19.09;41.97
11971;BME280;6045;42.682;23.294;2023-04-26T10:15:08;93753.22;;;19.05;43.19
11971;BME280;6045;42.682;23.294;2023-04-26T10:17:36;93758.91;;;19.17;43.87
11971;BME280;6045;42.682;23.294;2023-04-26T10:20:05;93751.19;;;18.56;41.52
11971;BME280;6045;42.682;23.294;2023-04-26T10:22:38;93748.94;;;18.17;41.13
11971;BME280;6045;42.682;23.294;2023-04-26T10:25:07;93756.69;;;17.92;43.97
11971;BME280;6045;42.682;23.294;2023-04-26T10:27:47;93760.72;;;18.08;44.11
11971;BME280;6045;42.682;23.294;2023-04-26T10:30:15;93759.03;;;18.12;43.28
11971;BME280;6045;42.682;23.294;2023-04-26T10:36:07;93753.22;;;18.78;42.22
11971;BME280;6045;42.682;23.294;2023-04-26T10:38:37;93759.22;;;19.02;42.55
11971;BME280;6045;42.682;23.294;2023-04-26T10:41:26;93748.31;;;19.29;41.58
11971;BME280;6045;42.682;23.294;2023-04-26T10:43:54;93760.22;;;19.06;40.58
11971;BME280;6045;42.682;23.294;2023-04-26T10:46:35;93747.50;;;18.66;40.60
11971;BME280;6045;42.682;23.294;2023-04-26T10:49:16;93751.97;;;18.43;39.87
11971;BME280;6045;42.682;23.294;2023-04-26T10:52:08;93743.38;;;18.68;40.73
11971;BME280;6045;42.682;23.294;2023-04-26T10:54:49;93740.50;;;18.78;39.15
11971;BME280;6045;42.682;23.294;2023-04-26T10:57:17;93741.19;;;18.84;41.25
11971;BME280;6045;42.682;23.294;2023-04-26T11:00:26;93743.38;;;18.95;42.20
11971;BME280;6045;42.682;23.294;2023-04-26T11:02:55;93738.75;;;19.09;40.16
11971;BME280;6045;42.682;23.294;2023-04-26T11:05:40;93754.19;;;19.09;39.48
11971;BME280;6045;42.682;23.294;2023-04-26T11:08:14;93732.97;;;19.25;39.69
11971;BME280;6045;42.682;23.294;2023-04-26T11:10:41;93752.63;;;18.67;38.40
11971;BME280;6045;42.682;23.294;2023-04-26T11:13:08;93743.44;;;18.22;40.63
11971;BME280;6045;42.682;23.294;2023-04-26T11:15:36;93744.53;;;18.35;40.62
11971;BME280;6045;42.682;23.294;2023-04-26T11:18:04;93742.38;;;18.91;42.17
11971;BME280;6045;42.682;23.294;2023-04-26T11:20:31;93737.31;;;19.26;40.18
11971;BME280;6045;42.682;23.294;2023-04-26T11:22:58;93732.66;;;18.90;37.57
11971;BME280;6045;42.682;23.294;2023-04-26T11:25:26;93740.84;;;18.31;39.32
11971;BME280;6045;42.682;23.294;2023-04-26T11:27:58;93741.28;;;18.52;42.21
11971;BME280;6045;42.682;23.294;2023-04-26T11:30:27;93743.22;;;18.51;41.08
11971;BME280;6045;42.682;23.294;2023-04-26T11:32:56;93746.00;;;18.46;40.93
11971;BME280;6045;42.682;23.294;2023-04-26T11:35:23;93748.09;;;18.49;40.41
11971;BME280;6045;42.682;23.294;2023-04-26T11:37:50;93758.53;;;18.56;39.73
11971;BME280;6045;42.682;23.294;2023-04-26T11:40:17;93740.16;;;18.39;42.54
11971;BME280;6045;42.682;23.294;2023-04-26T11:42:44;93754.38;;;18.31;39.47
11971;BME280;6045;42.682;23.294;2023-04-26T11:45:13;93753.00;;;18.47;39.98
11971;BME280;6045;42.682;23.294;2023-04-26T11:47:40;93753.31;;;18.73;40.80
11971;BME280;6045;42.682;23.294;2023-04-26T11:50:10;93740.38;;;18.56;39.15
11971;BME280;6045;42.682;23.294;2023-04-26T11:52:37;93740.56;;;19.00;42.32
11971;BME280;6045;42.682;23.294;2023-04-26T11:55:06;93742.31;;;19.32;40.16
11971;BME280;6045;42.682;23.294;2023-04-26T11:57:34;93745.88;;;19.55;36.84
11971;BME280;6045;42.682;23.294;2023-04-26T12:00:09;93747.97;;;19.36;36.22
11971;BME280;6045;42.682;23.294;2023-04-26T12:02:38;93736.78;;;18.88;37.05
11971;BME280;6045;42.682;23.294;2023-04-26T12:05:06;93747.00;;;18.77;39.95
11971;BME280;6045;42.682;23.294;2023-04-26T12:07:36;93737.88;;;18.60;39.83
11971;BME280;6045;42.682;23.294;2023-04-26T12:10:24;93737.13;;;18.40;38.27
11971;BME280;6045;42.682;23.294;2023-04-26T12:12:53;93731.75;;;18.54;40.65
11971;BME280;6045;42.682;23.294;2023-04-26T12:15:27;93747.31;;;18.76;39.88
11971;BME280;6045;42.682;23.294;2023-04-26T12:17:55;93730.66;;;18.55;38.31
11971;BME280;6045;42.682;23.294;2023-04-26T12:20:29;93737.97;;;18.55;39.58
11971;BME280;6045;42.682;23.294;2023-04-26T12:23:03;93741.91;;;18.62;38.74
11971;BME280;6045;42.682;23.294;2023-04-26T12:25:30;93734.59;;;18.63;41.18
11971;BME280;6045;42.682;23.294;2023-04-26T12:27:58;93735.97;;;18.87;40.18
11971;BME280;6045;42.682;23.294;2023-04-26T12:30:26;93734.16;;;18.83;37.06
11971;BME280;6045;42.682;23.294;2023-04-26T12:32:53;93727.31;;;18.99;39.20
11971;BME280;6045;42.682;23.294;2023-04-26T12:35:20;93730.72;;;19.04;38.33
11971;BME280;6045;42.682;23.294;2023-04-26T12:37:47;93733.94;;;19.06;38.70
11971;BME280;6045;42.682;23.294;2023-04-26T12:40:16;93721.09;;;19.12;37.91
11971;BME280;6045;42.682;23.294;2023-04-26T12:42:45;93728.25;;;18.81;37.35
11971;BME280;6045;42.682;23.294;2023-04-26T12:45:12;93711.69;;;18.82;37.77
11971;BME280;6045;42.682;23.294;2023-04-26T12:47:38;93728.91;;;19.13;39.68
11971;BME280;6045;42.682;23.294;2023-04-26T12:50:06;93724.63;;;19.35;39.81
11971;BME280;6045;42.682;23.294;2023-04-26T12:52:33;93721.13;;;19.70;38.04
11971;BME280;6045;42.682;23.294;2023-04-26T12:55:00;93728.00;;;19.76;39.69
11971;BME280;6045;42.682;23.294;2023-04-26T12:57:30;93722.09;;;19.74;37.15
11971;BME280;6045;42.682;23.294;2023-04-26T12:59:57;93723.19;;;19.51;35.26
11971;BME280;6045;42.682;23.294;2023-04-26T13:02:24;93734.53;;;19.17;37.73
11971;BME280;6045;42.682;23.294;2023-04-26T13:04:50;93731.56;;;18.64;39.35
11971;BME280;6045;42.682;23.294;2023-04-26T13:07:17;93732.25;;;18.56;39.99
11971;BME280;6045;42.682;23.294;2023-04-26T13:09:44;93731.72;;;18.40;41.05